createdAt,value
2023-04-16T00:00:04.823Z,18.05
2023-04-16T00:05:14.765Z,15.30
2023-04-16T00:10:16.451Z,13.50
2023-04-16T00:15:18.083Z,13.10
2023-04-16T00:20:20.490Z,11.57
2023-04-16T00:25:22.173Z,11.27
2023-04-16T00:30:23.803Z,12.55
2023-04-16T00:35:25.728Z,12.60
2023-04-16T00:40:29.032Z,13.65
2023-04-16T00:45:30.863Z,12.57
2023-04-16T00:50:33.389Z,12.38
2023-04-16T00:55:35.295Z,12.32
2023-04-16T01:00:37.313Z,11.93
2023-04-16T01:05:38.998Z,11.93
2023-04-16T01:10:40.829Z,11.75
2023-04-16T01:15:42.486Z,11.10
2023-04-16T01:20:44.560Z,11.80
2023-04-16T01:25:47.047Z,11.38
2023-04-16T01:30:48.774Z,11.68
2023-04-16T01:36:22.395Z,11.27
2023-04-16T01:41:24.741Z,11.02
2023-04-16T01:46:31.743Z,10.75
2023-04-16T01:51:33.625Z,11.10
2023-04-16T01:56:35.330Z,10.38
2023-04-16T02:01:37.486Z,10.73
2023-04-16T02:06:39.428Z,10.63
2023-04-16T02:11:41.198Z,10.57
2023-04-16T02:16:42.918Z,12.55
2023-04-16T02:21:56.257Z,11.52
2023-04-16T02:26:58.262Z,12.13
2023-04-16T02:32:00.263Z,12.50
2023-04-16T02:37:03.631Z,12.52
2023-04-16T02:42:05.276Z,13.02
2023-04-16T02:47:06.994Z,11.75
2023-04-16T02:52:08.664Z,11.65
2023-04-16T02:57:10.498Z,11.07
2023-04-16T03:02:12.217Z,10.95
2023-04-16T03:07:13.999Z,10.93
2023-04-16T03:12:15.626Z,11.20
2023-04-16T03:17:17.251Z,10.88
2023-04-16T03:22:18.891Z,11.23
2023-04-16T03:27:21.264Z,10.07
2023-04-16T03:32:23.674Z,9.23
2023-04-16T03:37:25.503Z,8.98
2023-04-16T03:42:27.495Z,9.77
2023-04-16T03:47:29.201Z,9.93
2023-04-16T03:52:36.199Z,9.35
2023-04-16T03:57:38.014Z,9.50
2023-04-16T04:02:45.023Z,10.52
2023-04-16T04:07:53.071Z,14.45
2023-04-16T04:12:54.833Z,12.80
2023-04-16T04:17:57.886Z,10.60
2023-04-16T04:22:59.667Z,11.10
2023-04-16T04:28:02.067Z,10.95
2023-04-16T04:33:04.207Z,11.77
2023-04-16T04:38:06.515Z,9.88
2023-04-16T04:43:08.773Z,10.52
2023-04-16T04:48:10.566Z,9.38
2023-04-16T04:53:14.675Z,8.65
2023-04-16T04:58:16.451Z,9.45
2023-04-16T05:03:22.000Z,8.30
2023-04-16T05:08:23.779Z,9.02
2023-04-16T05:13:25.463Z,9.27
2023-04-16T05:18:27.086Z,9.35
2023-04-16T05:23:28.703Z,9.30
2023-04-16T05:28:30.994Z,9.50
2023-04-16T05:33:32.650Z,9.43
2023-04-16T05:38:34.267Z,9.70
2023-04-16T05:43:35.924Z,8.70
2023-04-16T05:48:37.621Z,8.93
2023-04-16T05:53:39.299Z,8.18
2023-04-16T05:58:40.922Z,8.30
2023-04-16T06:03:42.701Z,7.90
2023-04-16T06:08:44.415Z,7.60
2023-04-16T06:13:46.337Z,6.63
2023-04-16T06:18:47.991Z,7.10
2023-04-16T06:23:49.846Z,7.30
2023-04-16T06:28:51.504Z,6.97
2023-04-16T06:33:53.173Z,7.38
2023-04-16T06:38:54.898Z,8.20
2023-04-16T06:43:56.524Z,8.18
2023-04-16T06:48:58.146Z,5.75
2023-04-16T06:53:59.806Z,6.70
2023-04-16T06:59:01.406Z,8.15
2023-04-16T07:04:03.726Z,7.25
2023-04-16T07:09:05.681Z,7.00
2023-04-16T07:14:07.378Z,6.47
2023-04-16T07:19:09.184Z,7.20
2023-04-16T07:24:11.813Z,7.30
2023-04-16T07:29:13.552Z,6.85
2023-04-16T07:34:18.132Z,7.82
2023-04-16T07:39:19.802Z,7.50
2023-04-16T07:44:21.575Z,6.30
2023-04-16T07:49:23.298Z,7.78
2023-04-16T07:54:25.127Z,7.30
2023-04-16T07:59:27.516Z,7.15
2023-04-16T08:04:29.623Z,6.95
2023-04-16T08:09:31.352Z,8.27
2023-04-16T08:14:33.129Z,8.27
2023-04-16T08:19:34.739Z,8.93
2023-04-16T08:24:36.357Z,7.95
2023-04-16T08:29:38.277Z,8.70
2023-04-16T08:34:39.994Z,8.65
2023-04-16T08:39:41.811Z,9.82
2023-04-16T08:44:48.893Z,10.15
2023-04-16T08:49:58.393Z,10.05
2023-04-16T08:55:25.007Z,11.10
2023-04-16T09:00:26.798Z,10.52
2023-04-16T09:05:29.536Z,10.50
2023-04-16T09:10:31.423Z,9.65
2023-04-16T09:15:35.197Z,9.23
2023-04-16T09:20:36.900Z,8.82
2023-04-16T09:25:38.786Z,8.10
2023-04-16T09:30:43.182Z,8.18
2023-04-16T09:35:49.842Z,6.47
2023-04-16T09:41:07.239Z,7.65
2023-04-16T09:46:11.700Z,8.27
2023-04-16T09:51:13.422Z,5.97
2023-04-16T09:56:15.116Z,7.20
2023-04-16T10:01:18.309Z,6.20
2023-04-16T10:06:22.247Z,4.75
2023-04-16T10:11:25.707Z,4.57
2023-04-16T10:16:36.760Z,3.92
2023-04-16T10:21:38.432Z,5.55
2023-04-16T10:26:41.323Z,5.82
2023-04-16T10:31:43.204Z,4.35
2023-04-16T10:36:48.817Z,4.38
2023-04-16T10:41:51.367Z,3.55
2023-04-16T10:46:54.824Z,3.95
2023-04-16T10:52:00.279Z,3.97
2023-04-16T10:57:20.571Z,2.40
2023-04-16T11:02:28.990Z,2.75
2023-04-16T11:07:34.920Z,2.03
2023-04-16T11:12:40.537Z,1.77
2023-04-16T11:17:47.505Z,2.15
2023-04-16T11:22:50.266Z,2.00
2023-04-16T11:27:53.887Z,2.83
2023-04-16T11:32:55.770Z,1.88
2023-04-16T11:37:57.759Z,3.72
2023-04-16T11:43:04.075Z,2.97
2023-04-16T11:48:06.033Z,3.13
2023-04-16T11:53:07.783Z,2.97
2023-04-16T11:58:19.185Z,2.70
2023-04-16T12:03:38.819Z,3.10
2023-04-16T12:08:40.626Z,3.33
2023-04-16T12:13:42.314Z,2.35
2023-04-16T12:19:03.056Z,1.48
2023-04-16T12:24:05.967Z,2.72
2023-04-16T12:29:25.011Z,3.03
2023-04-16T12:34:36.509Z,3.33
2023-04-16T12:39:48.339Z,3.85
2023-04-16T12:44:50.028Z,4.47
2023-04-16T12:49:51.650Z,4.38
2023-04-16T12:54:53.484Z,3.30
2023-04-16T12:59:56.891Z,4.35
2023-04-16T13:04:58.557Z,4.25
2023-04-16T13:10:00.974Z,3.20
2023-04-16T13:15:02.700Z,3.22
2023-04-16T13:20:04.709Z,3.13
2023-04-16T13:25:07.073Z,3.20
2023-04-16T13:30:25.368Z,3.15
2023-04-16T13:40:29.047Z,4.13
2023-04-16T13:45:30.868Z,3.70
2023-04-16T13:50:32.546Z,4.10
2023-04-16T13:55:34.313Z,3.75
2023-04-16T14:00:36.035Z,4.18
2023-04-16T14:05:37.701Z,3.40
2023-04-16T14:10:39.398Z,3.88
2023-04-16T14:15:41.113Z,3.30
2023-04-16T14:20:43.838Z,3.10
2023-04-16T14:25:45.601Z,3.03
2023-04-16T14:30:47.193Z,3.08
2023-04-16T14:35:50.385Z,2.88
2023-04-16T14:40:52.099Z,2.97
2023-04-16T14:45:53.834Z,2.97
2023-04-16T14:50:55.676Z,2.47
2023-04-16T14:56:00.643Z,3.10
2023-04-16T15:01:03.195Z,3.05
2023-04-16T15:06:05.862Z,2.55
2023-04-16T15:11:07.677Z,1.85
2023-04-16T15:16:09.335Z,2.22
2023-04-16T15:21:12.593Z,1.92
2023-04-16T15:26:14.565Z,1.33
2023-04-16T15:31:16.259Z,2.05
2023-04-16T15:36:17.977Z,1.40
2023-04-16T15:41:19.712Z,1.80
2023-04-16T15:46:21.421Z,1.95
2023-04-16T15:51:23.122Z,2.10
2023-04-16T15:56:25.386Z,2.03
2023-04-16T16:01:28.535Z,1.58
2023-04-16T16:06:30.176Z,2.22
2023-04-16T16:11:34.647Z,1.80
2023-04-16T16:16:40.247Z,2.10
2023-04-16T16:21:42.089Z,2.35
2023-04-16T16:26:44.054Z,3.03
2023-04-16T16:31:45.949Z,3.00
2023-04-16T16:36:47.753Z,3.03
2023-04-16T16:41:52.219Z,3.03
2023-04-16T16:46:54.268Z,2.85
2023-04-16T16:51:56.036Z,2.53
2023-04-16T16:56:58.683Z,2.55
2023-04-16T17:02:00.426Z,2.35
2023-04-16T17:07:02.601Z,2.75
2023-04-16T17:12:05.529Z,2.83
2023-04-16T17:17:07.196Z,2.67
2023-04-16T17:22:08.953Z,2.80
2023-04-16T17:27:10.569Z,2.97
2023-04-16T17:32:12.342Z,3.35
2023-04-16T17:37:14.095Z,3.38
2023-04-16T17:42:15.861Z,3.97
2023-04-16T17:47:17.551Z,5.45
2023-04-16T17:52:21.259Z,5.25
2023-04-16T17:57:22.868Z,7.07
2023-04-16T18:02:32.341Z,8.25
2023-04-16T18:07:36.611Z,8.02
2023-04-16T18:12:38.333Z,8.40
2023-04-16T18:17:40.516Z,10.18
2023-04-16T18:22:42.555Z,9.10
2023-04-16T18:27:44.844Z,10.30
2023-04-16T18:33:16.621Z,10.02
2023-04-16T18:38:08.783Z,8.70
2023-04-16T18:43:11.828Z,7.57
2023-04-16T18:48:13.481Z,5.75
2023-04-16T18:53:19.894Z,5.00
2023-04-16T18:58:24.554Z,4.07
2023-04-16T19:03:27.472Z,5.03
2023-04-16T19:08:29.767Z,4.13
2023-04-16T19:13:32.336Z,4.05
2023-04-16T19:18:33.976Z,4.88
2023-04-16T19:23:35.699Z,4.18
2023-04-16T19:28:38.780Z,3.92
2023-04-16T19:33:41.184Z,5.18
2023-04-16T19:38:42.802Z,5.53
2023-04-16T19:43:53.181Z,3.97
2023-04-16T19:48:54.885Z,3.60
2023-04-16T19:53:58.729Z,3.22
2023-04-16T19:59:02.035Z,3.35
2023-04-16T20:04:03.844Z,3.10
2023-04-16T20:09:06.045Z,3.50
2023-04-16T20:14:07.686Z,3.42
2023-04-16T20:19:17.109Z,4.40
2023-04-16T20:24:18.874Z,4.80
2023-04-16T20:29:23.200Z,4.65
2023-04-16T20:34:24.876Z,5.05
2023-04-16T20:39:27.338Z,4.35
2023-04-16T20:44:33.431Z,4.82
2023-04-16T20:49:35.326Z,5.15
2023-04-16T20:54:37.128Z,5.10
2023-04-16T20:59:38.857Z,5.13
2023-04-16T21:04:40.815Z,5.57
2023-04-16T21:09:42.564Z,5.75
2023-04-16T21:14:44.278Z,5.90
2023-04-16T21:19:49.468Z,5.88
2023-04-16T21:25:07.207Z,5.97
2023-04-16T21:30:15.032Z,6.20
2023-04-16T21:35:16.775Z,6.20
2023-04-16T21:40:21.801Z,5.32
2023-04-16T21:45:23.574Z,5.78
2023-04-16T21:50:25.356Z,6.28
2023-04-16T21:55:27.028Z,6.57
2023-04-16T22:00:37.908Z,6.25
2023-04-16T22:05:44.976Z,6.78
2023-04-16T22:10:47.088Z,7.28
2023-04-16T22:15:48.671Z,6.00
2023-04-16T22:20:51.034Z,6.45
2023-04-16T22:25:54.319Z,6.03
2023-04-16T22:30:57.586Z,6.72
2023-04-16T22:36:03.275Z,6.85
2023-04-16T22:41:05.003Z,6.78
2023-04-16T22:46:14.785Z,8.30
2023-04-16T22:51:21.402Z,7.28
2023-04-16T22:56:28.668Z,7.38
2023-04-16T23:01:34.361Z,6.88
2023-04-16T23:06:36.245Z,6.93
2023-04-16T23:11:37.954Z,7.82
2023-04-16T23:16:39.930Z,7.22
2023-04-16T23:21:41.894Z,6.75
2023-04-16T23:26:43.526Z,7.22
2023-04-16T23:31:45.404Z,7.88
2023-04-16T23:36:47.128Z,7.88
2023-04-16T23:41:48.831Z,7.43
2023-04-16T23:46:50.621Z,6.50
2023-04-16T23:51:52.275Z,7.03
2023-04-16T23:56:53.917Z,7.55
